Time;durP1;ratioP1;P1;durP2;ratioP2;P2;SDS_P1;SDS_P2;PMS_P1;PMS_P2;Temp;Humidity;BMP_temperature;BMP_pressure;BME280_temperature;BME280_humidity;BME280_pressure;Samples;Min_cycle;Max_cycle;Signal;HPM_P1;HPM_P2
2023/03/13 00:01:20;;;;;;;27.27;8.30;;;7.10;99.90;;;;;;4844038;29;20333;-59
2023/03/13 00:03:49;;;;;;;26.73;7.77;;;7.20;99.90;;;;;;4844621;29;20700;-59
2023/03/13 00:06:17;;;;;;;33.37;8.67;;;7.20;99.90;;;;;;4844530;29;20727;-59
2023/03/13 00:08:45;;;;;;;27.77;8.57;;;7.10;99.90;;;;;;4844261;29;20243;-60
2023/03/13 00:11:15;;;;;;;37.53;8.50;;;7.20;99.90;;;;;;4844330;29;20230;-59
2023/03/13 00:13:44;;;;;;;28.63;7.93;;;7.20;99.90;;;;;;4844323;29;20312;-60
2023/03/13 00:16:15;;;;;;;30.47;8.93;;;7.20;99.90;;;;;;4829661;29;20232;-60
2023/03/13 00:18:47;;;;;;;30.80;8.90;;;7.20;99.90;;;;;;4830602;29;20242;-60
2023/03/13 00:21:16;;;;;;;35.07;8.73;;;7.20;99.90;;;;;;4855943;29;20237;-61
2023/03/13 00:23:45;;;;;;;30.13;9.60;;;7.20;99.90;;;;;;4858542;29;20243;-60
2023/03/13 00:26:15;;;;;;;27.97;8.13;;;7.30;99.90;;;;;;4852113;29;20232;-60
2023/03/13 00:28:44;;;;;;;23.43;8.13;;;7.40;99.90;;;;;;4852858;29;20239;-60
2023/03/13 00:31:16;;;;;;;25.80;8.47;;;7.40;99.90;;;;;;4850390;29;20255;-59
2023/03/13 00:33:47;;;;;;;34.87;9.00;;;7.50;99.90;;;;;;4844281;29;20256;-60
2023/03/13 00:36:17;;;;;;;25.30;8.03;;;7.50;99.90;;;;;;4843748;29;20592;-60
2023/03/13 00:38:45;;;;;;;24.30;8.50;;;7.40;99.90;;;;;;4843802;29;20246;-60
2023/03/13 00:41:15;;;;;;;32.30;8.27;;;7.50;99.90;;;;;;4843584;29;20227;-59
2023/03/13 00:43:45;;;;;;;29.93;9.00;;;7.60;99.90;;;;;;4843382;29;20235;-60
2023/03/13 00:46:16;;;;;;;26.77;8.30;;;7.60;99.90;;;;;;4843525;29;20223;-60
2023/03/13 00:48:44;;;;;;;28.63;8.20;;;7.60;99.90;;;;;;4837647;29;20616;-59
2023/03/13 00:51:14;;;;;;;27.30;8.30;;;7.50;99.90;;;;;;4840718;29;20619;-60
2023/03/13 00:53:42;;;;;;;34.57;9.47;;;7.50;99.90;;;;;;4824467;29;20616;-59
2023/03/13 00:56:12;;;;;;;26.97;8.87;;;7.60;99.90;;;;;;4839013;29;20236;-60
2023/03/13 00:58:42;;;;;;;27.50;9.10;;;7.60;99.90;;;;;;4823285;29;20246;-59
2023/03/13 01:01:13;;;;;;;28.07;9.43;;;7.60;99.90;;;;;;4823340;29;20705;-59
2023/03/13 01:03:44;;;;;;;36.00;10.57;;;7.60;99.90;;;;;;4824734;29;20242;-60
2023/03/13 01:06:14;;;;;;;35.20;9.03;;;7.60;99.90;;;;;;4824890;29;20228;-60
2023/03/13 01:08:43;;;;;;;34.40;10.10;;;7.60;99.90;;;;;;4824960;29;20589;-59
2023/03/13 01:11:13;;;;;;;32.83;10.07;;;7.60;99.90;;;;;;4824792;29;20228;-59
2023/03/13 01:13:41;;;;;;;35.03;10.50;;;7.60;99.90;;;;;;4824676;29;20593;-60
2023/03/13 01:16:11;;;;;;;32.37;9.60;;;7.60;99.90;;;;;;4824670;29;20234;-60
2023/03/13 01:18:43;;;;;;;27.80;9.53;;;7.60;99.90;;;;;;4827177;29;20723;-61
2023/03/13 01:21:12;;;;;;;30.10;10.13;;;7.60;99.90;;;;;;4842694;29;20637;-59
2023/03/13 01:23:40;;;;;;;28.53;9.10;;;7.50;99.90;;;;;;4842493;29;20223;-59
2023/03/13 01:26:10;;;;;;;32.60;9.53;;;7.60;99.90;;;;;;4842751;29;20272;-59
2023/03/13 01:28:38;;;;;;;33.30;9.30;;;7.50;99.90;;;;;;4841332;29;20231;-60
2023/03/13 01:31:14;;;;;;;33.77;9.60;;;7.60;99.90;;;;;;4842292;29;20243;-60
2023/03/13 01:33:43;;;;;;;33.27;9.00;;;7.60;99.90;;;;;;4842497;29;20231;-59
2023/03/13 01:36:12;;;;;;;33.33;9.23;;;7.60;99.90;;;;;;4842605;29;20238;-60
2023/03/13 01:38:40;;;;;;;31.43;8.63;;;7.60;99.90;;;;;;4842373;29;20238;-59
2023/03/13 01:41:10;;;;;;;34.93;9.73;;;7.50;99.90;;;;;;4841275;29;20227;-59
2023/03/13 01:43:39;;;;;;;27.93;8.60;;;7.50;99.90;;;;;;4840981;29;20246;-59
2023/03/13 01:46:16;;;;;;;32.77;10.03;;;7.50;99.90;;;;;;4841290;29;20227;-60
2023/03/13 01:49:09;;;;;;;30.57;7.77;;;7.50;99.90;;;;;;4835733;29;20269;-60
2023/03/13 01:52:07;;;;;;;42.70;9.10;;;7.50;99.90;;;;;;4846752;29;20627;-59
2023/03/13 01:54:44;;;;;;;33.20;8.97;;;7.40;99.90;;;;;;4840937;29;20235;-60
2023/03/13 01:57:18;;;;;;;33.83;8.53;;;7.40;99.90;;;;;;4841053;29;20747;-60
2023/03/13 01:59:51;;;;;;;31.40;8.33;;;7.40;99.90;;;;;;4840848;29;20231;-60
2023/03/13 02:02:19;;;;;;;32.13;8.47;;;7.40;99.90;;;;;;4842054;29;20249;-63
2023/03/13 02:04:53;;;;;;;31.37;8.47;;;7.40;99.90;;;;;;4841843;29;20243;-64
2023/03/13 02:07:27;;;;;;;36.23;8.57;;;7.30;99.90;;;;;;4840928;29;20242;-64
2023/03/13 02:09:56;;;;;;;30.00;8.23;;;7.40;99.90;;;;;;4840947;29;20239;-64
2023/03/13 02:12:30;;;;;;;30.57;7.83;;;7.40;99.90;;;;;;4856190;29;20649;-63
2023/03/13 02:15:00;;;;;;;28.73;8.27;;;7.40;99.90;;;;;;4834657;29;20600;-64
2023/03/13 02:17:30;;;;;;;34.00;7.80;;;7.40;99.90;;;;;;4823562;29;20247;-63
2023/03/13 02:20:00;;;;;;;22.90;6.77;;;7.40;99.90;;;;;;4835065;29;20223;-64
2023/03/13 02:22:37;;;;;;;34.93;7.63;;;7.40;99.90;;;;;;4840479;29;20235;-64
2023/03/13 02:25:12;;;;;;;36.13;8.73;;;7.40;99.90;;;;;;4856043;29;20262;-64
2023/03/13 02:27:45;;;;;;;31.40;7.73;;;7.30;99.90;;;;;;4855968;29;20695;-64
2023/03/13 02:30:14;;;;;;;30.80;7.53;;;7.30;99.90;;;;;;4840243;29;20315;-64
2023/03/13 02:32:44;;;;;;;28.03;7.53;;;7.40;99.90;;;;;;4841756;29;20231;-64
2023/03/13 02:35:14;;;;;;;28.77;7.60;;;7.30;99.90;;;;;;4841898;29;20842;-64
2023/03/13 02:37:46;;;;;;;27.57;7.43;;;7.40;99.90;;;;;;4855865;29;20227;-63
2023/03/13 02:40:24;;;;;;;28.80;7.20;;;7.30;99.90;;;;;;4840618;29;20287;-63
2023/03/13 02:42:55;;;;;;;27.50;6.57;;;7.40;99.90;;;;;;4855966;29;20231;-63
2023/03/13 02:45:23;;;;;;;29.87;7.77;;;7.40;99.90;;;;;;4841777;29;20239;-64
2023/03/13 02:47:52;;;;;;;33.37;7.43;;;7.30;99.90;;;;;;4840312;29;20241;-63
2023/03/13 02:50:21;;;;;;;30.87;7.13;;;7.40;99.90;;;;;;4835410;29;20231;-64
2023/03/13 02:52:55;;;;;;;31.97;7.33;;;7.40;99.90;;;;;;4840357;29;20235;-63
2023/03/13 02:55:28;;;;;;;33.93;7.70;;;7.40;99.90;;;;;;4837581;29;20228;-64
2023/03/13 02:57:57;;;;;;;27.37;7.10;;;7.40;99.90;;;;;;4822152;29;20604;-64
2023/03/13 03:00:28;;;;;;;25.87;6.97;;;7.40;99.90;;;;;;4824029;29;20243;-63
2023/03/13 03:02:56;;;;;;;35.53;7.47;;;7.40;99.90;;;;;;4837406;29;20290;-64
2023/03/13 03:05:25;;;;;;;30.10;8.07;;;7.40;99.90;;;;;;4823340;29;20731;-64
2023/03/13 03:07:53;;;;;;;29.13;7.00;;;7.40;99.90;;;;;;4837390;29;20239;-63
2023/03/13 03:10:21;;;;;;;32.67;7.50;;;7.40;99.90;;;;;;4822099;29;20232;-63
2023/03/13 03:12:50;;;;;;;28.87;6.90;;;7.40;99.90;;;;;;4822058;29;20233;-64
2023/03/13 03:15:21;;;;;;;26.23;6.37;;;7.40;99.90;;;;;;4822063;29;20224;-64
2023/03/13 03:17:49;;;;;;;26.97;6.23;;;7.40;99.90;;;;;;4825554;29;20245;-64
2023/03/13 03:20:17;;;;;;;30.33;7.00;;;7.40;99.90;;;;;;4841703;29;20722;-64
2023/03/13 03:22:48;;;;;;;26.73;6.70;;;7.50;99.90;;;;;;4844735;29;20671;-64
2023/03/13 03:25:16;;;;;;;31.40;6.93;;;7.40;99.90;;;;;;4843516;29;20239;-64
2023/03/13 03:27:44;;;;;;;28.00;6.67;;;7.40;99.90;;;;;;4828117;29;20251;-63
2023/03/13 03:30:13;;;;;;;30.40;7.03;;;7.40;99.90;;;;;;4844271;29;20735;-63
2023/03/13 03:32:42;;;;;;;31.67;7.70;;;7.50;99.90;;;;;;4844659;29;20227;-64
2023/03/13 03:35:11;;;;;;;23.37;5.80;;;7.50;99.90;;;;;;4843496;29;20239;-64
2023/03/13 03:37:39;;;;;;;18.83;5.80;;;7.50;99.90;;;;;;4843312;29;20232;-64
2023/03/13 03:40:09;;;;;;;34.93;6.93;;;7.50;99.90;;;;;;4843320;29;20231;-63
2023/03/13 03:42:37;;;;;;;32.47;7.23;;;7.50;99.90;;;;;;4844417;29;20231;-64
2023/03/13 03:45:07;;;;;;;29.37;6.90;;;7.50;99.90;;;;;;4844450;29;20245;-64
2023/03/13 03:47:35;;;;;;;28.87;6.90;;;7.50;99.90;;;;;;4843086;29;20731;-64
2023/03/13 03:50:06;;;;;;;29.63;7.50;;;7.50;99.90;;;;;;4832966;29;20240;-64
2023/03/13 03:52:42;;;;;;;26.03;6.17;;;7.50;99.90;;;;;;4841930;29;20599;-64
2023/03/13 03:55:10;;;;;;;34.30;7.67;;;7.50;99.90;;;;;;4842046;29;20224;-64
2023/03/13 03:57:38;;;;;;;30.27;6.63;;;7.50;99.90;;;;;;4857206;29;20321;-64
2023/03/13 04:00:14;;;;;;;25.77;6.60;;;7.50;99.90;;;;;;4841649;29;20611;-63
2023/03/13 04:02:48;;;;;;;29.63;6.50;;;7.50;99.90;;;;;;4841891;29;20280;-64
2023/03/13 04:05:18;;;;;;;26.23;6.13;;;7.60;99.90;;;;;;4843116;29;20242;-63
2023/03/13 04:07:46;;;;;;;26.27;6.60;;;7.50;99.90;;;;;;4841822;29;20310;-64
2023/03/13 04:10:14;;;;;;;21.57;5.97;;;7.50;99.90;;;;;;4841865;29;20707;-63
2023/03/13 04:12:44;;;;;;;26.20;6.50;;;7.50;99.90;;;;;;4841712;29;21372;-64
2023/03/13 04:15:13;;;;;;;28.37;6.47;;;7.50;99.90;;;;;;4833666;29;20228;-64
2023/03/13 04:17:41;;;;;;;22.13;6.23;;;7.50;99.90;;;;;;4823844;29;20235;-63
2023/03/13 04:20:12;;;;;;;30.97;5.87;;;7.50;99.90;;;;;;4838495;29;20232;-64
2023/03/13 04:22:42;;;;;;;30.73;6.63;;;7.50;99.90;;;;;;4841518;29;20768;-64
2023/03/13 04:25:11;;;;;;;27.50;5.93;;;7.50;99.90;;;;;;4841573;29;20239;-64
2023/03/13 04:27:39;;;;;;;24.23;6.33;;;7.50;99.90;;;;;;4856811;29;20599;-63
2023/03/13 04:30:09;;;;;;;23.77;5.57;;;7.50;99.90;;;;;;4840909;29;20649;-64
2023/03/13 04:32:55;;;;;;;22.60;6.47;;;7.60;99.90;;;;;;4842866;29;20735;-63
2023/03/13 04:35:44;;;;;;;30.73;7.03;;;7.60;99.90;;;;;;4841376;29;20234;-63
2023/03/13 04:38:46;;;;;;;25.10;6.30;;;7.60;99.90;;;;;;4846065;29;20270;-63
2023/03/13 04:41:43;;;;;;;31.80;6.20;;;7.60;99.90;;;;;;4845745;29;20699;-63
2023/03/13 04:44:20;;;;;;;25.17;6.50;;;7.60;99.90;;;;;;4841369;29;20235;-64
2023/03/13 04:47:13;;;;;;;20.20;5.80;;;7.70;99.90;;;;;;4841312;29;20231;-63
2023/03/13 04:50:10;;;;;;;28.23;6.50;;;7.70;99.90;;;;;;4811032;29;1116123;-63
2023/03/13 04:52:50;;;;;;;25.53;6.13;;;7.60;99.90;;;;;;4818998;29;20551;-63
2023/03/13 04:55:33;;;;;;;26.80;7.33;;;7.60;99.90;;;;;;4815782;29;20287;-63
2023/03/13 04:58:17;;;;;;;21.67;6.13;;;7.60;99.90;;;;;;4821929;29;20311;-64
2023/03/13 05:01:20;;;;;;;22.43;6.50;;;7.60;99.90;;;;;;4820580;29;20231;-64
2023/03/13 05:04:14;;;;;;;23.50;6.17;;;7.70;99.90;;;;;;4813627;29;20241;-64
2023/03/13 05:06:59;;;;;;;19.33;6.67;;;7.70;99.90;;;;;;4844814;29;20238;-64
2023/03/13 05:09:36;;;;;;;21.30;6.10;;;7.70;99.90;;;;;;4816123;29;20589;-63
2023/03/13 05:12:24;;;;;;;26.20;6.87;;;7.70;99.90;;;;;;4815236;29;20236;-64
2023/03/13 05:15:01;;;;;;;19.57;5.80;;;7.70;99.90;;;;;;4815361;29;20233;-64
2023/03/13 05:17:52;;;;;;;20.23;6.47;;;7.80;99.90;;;;;;4820424;29;20245;-63
2023/03/13 05:20:51;;;;;;;21.63;5.73;;;7.70;99.90;;;;;;4842921;29;20278;-63
2023/03/13 05:23:50;;;;;;;17.83;5.93;;;7.80;99.90;;;;;;4822389;29;20772;-63
2023/03/13 05:26:21;;;;;;;17.83;6.33;;;7.80;99.90;;;;;;4824892;29;20240;-63
2023/03/13 05:29:10;;;;;;;18.30;5.30;;;7.70;99.90;;;;;;4823317;29;20262;-63
2023/03/13 05:31:48;;;;;;;13.60;5.50;;;7.80;99.90;;;;;;4824073;29;20293;-63
2023/03/13 05:34:37;;;;;;;14.47;4.87;;;7.80;99.90;;;;;;4823409;29;20242;-63
2023/03/13 05:37:25;;;;;;;13.23;4.93;;;7.90;99.90;;;;;;4824210;29;20240;-63
2023/03/13 05:40:19;;;;;;;16.57;5.60;;;7.80;99.90;;;;;;4830156;29;20677;-62
2023/03/13 05:43:05;;;;;;;14.73;6.07;;;7.90;99.90;;;;;;4824423;29;20220;-63
2023/03/13 05:46:03;;;;;;;13.60;6.83;;;8.00;99.90;;;;;;4827526;29;20248;-63
2023/03/13 05:49:04;;;;;;;11.67;6.40;;;7.90;99.90;;;;;;4835925;29;20242;-63
2023/03/13 05:51:52;;;;;;;12.40;5.70;;;8.00;99.90;;;;;;4842027;29;20649;-63
2023/03/13 05:54:39;;;;;;;9.20;4.37;;;8.00;99.90;;;;;;4826812;29;20377;-64
2023/03/13 05:57:21;;;;;;;10.47;5.37;;;8.10;99.90;;;;;;4805005;29;20236;-64
2023/03/13 06:00:01;;;;;;;12.17;5.03;;;8.10;99.90;;;;;;4806560;29;20260;-64
2023/03/13 06:02:54;;;;;;;10.50;5.23;;;8.10;99.90;;;;;;4804967;29;20334;-63
2023/03/13 06:05:29;;;;;;;6.70;4.17;;;8.10;99.90;;;;;;4811559;29;22099;-64
2023/03/13 06:07:59;;;;;;;9.77;4.50;;;8.10;99.90;;;;;;4820432;29;20319;-63
2023/03/13 06:10:27;;;;;;;9.83;4.37;;;8.20;99.90;;;;;;4821542;29;20319;-64
2023/03/13 06:12:56;;;;;;;9.23;4.10;;;8.30;99.90;;;;;;4824408;29;20272;-64
2023/03/13 06:15:30;;;;;;;8.83;4.93;;;8.30;99.90;;;;;;4812564;29;20265;-64
2023/03/13 06:18:13;;;;;;;7.87;4.27;;;8.30;99.90;;;;;;4810290;29;20250;-63
2023/03/13 06:20:41;;;;;;;10.00;4.53;;;8.30;99.90;;;;;;4819759;29;20601;-62
2023/03/13 06:23:09;;;;;;;10.07;4.90;;;8.40;99.90;;;;;;4818176;29;20305;-64
2023/03/13 06:25:38;;;;;;;8.90;4.53;;;8.40;99.90;;;;;;4818517;29;20244;-64
2023/03/13 06:28:06;;;;;;;7.40;4.70;;;8.40;99.90;;;;;;4822262;29;20235;-64
2023/03/13 06:30:34;;;;;;;10.33;5.07;;;8.50;99.90;;;;;;4827474;29;20239;-63
2023/03/13 06:33:02;;;;;;;9.13;5.33;;;8.50;99.90;;;;;;4829644;29;20231;-63
2023/03/13 06:35:32;;;;;;;9.37;5.03;;;8.50;99.90;;;;;;4833549;29;20589;-63
2023/03/13 06:38:11;;;;;;;10.17;5.40;;;8.50;99.90;;;;;;4834343;29;20318;-63
2023/03/13 06:40:39;;;;;;;11.70;5.37;;;8.50;99.90;;;;;;4834561;29;20264;-63
2023/03/13 06:43:07;;;;;;;8.83;5.30;;;8.60;99.90;;;;;;4825197;29;20231;-64
2023/03/13 06:45:35;;;;;;;7.97;5.40;;;8.70;99.90;;;;;;4824052;29;20232;-64
2023/03/13 06:48:04;;;;;;;7.73;5.10;;;8.70;99.90;;;;;;4821908;29;20232;-64
2023/03/13 06:50:37;;;;;;;6.50;5.00;;;8.70;99.90;;;;;;4831429;29;20224;-64
2023/03/13 06:53:05;;;;;;;9.40;4.87;;;8.80;99.90;;;;;;4836887;29;20246;-64
2023/03/13 06:55:33;;;;;;;8.53;5.47;;;8.80;99.90;;;;;;4829655;29;20231;-64
2023/03/13 06:58:02;;;;;;;8.30;5.13;;;8.90;99.90;;;;;;4836505;29;20232;-64
2023/03/13 07:00:30;;;;;;;8.47;5.63;;;8.90;99.90;;;;;;4834789;29;20246;-64
2023/03/13 07:02:58;;;;;;;7.70;5.50;;;8.90;99.90;;;;;;4828992;29;20321;-64
2023/03/13 07:05:26;;;;;;;8.87;5.17;;;8.90;99.90;;;;;;4832589;29;20748;-64
2023/03/13 07:07:55;;;;;;;9.37;5.47;;;9.00;99.90;;;;;;4841201;29;20236;-64
2023/03/13 07:10:24;;;;;;;6.20;4.27;;;9.00;99.90;;;;;;4829060;29;20246;-63
2023/03/13 07:12:52;;;;;;;7.03;4.73;;;9.00;99.90;;;;;;4833325;29;20271;-64
2023/03/13 07:15:20;;;;;;;6.07;4.90;;;9.10;99.90;;;;;;4829655;29;20231;-64
2023/03/13 07:17:49;;;;;;;6.53;4.40;;;9.10;99.90;;;;;;4839388;29;20228;-63
2023/03/13 07:20:17;;;;;;;6.43;4.23;;;9.10;99.90;;;;;;4830569;29;20228;-64
2023/03/13 07:22:51;;;;;;;5.17;4.30;;;9.10;99.90;;;;;;4830166;29;20685;-64
2023/03/13 07:25:20;;;;;;;7.77;4.80;;;9.20;99.90;;;;;;4830471;29;20718;-64
2023/03/13 07:27:51;;;;;;;6.83;5.10;;;9.20;99.90;;;;;;4839999;29;20689;-63
2023/03/13 07:30:20;;;;;;;7.80;5.40;;;9.20;99.90;;;;;;4828048;29;20235;-64
2023/03/13 07:32:48;;;;;;;7.67;5.80;;;9.30;99.90;;;;;;4826235;29;20236;-64
2023/03/13 07:35:16;;;;;;;8.63;6.53;;;9.30;99.90;;;;;;4837350;29;20236;-64
2023/03/13 07:37:44;;;;;;;8.17;6.13;;;9.40;99.90;;;;;;4840117;29;20258;-63
2023/03/13 07:40:13;;;;;;;7.03;5.60;;;9.40;99.90;;;;;;4832397;29;20227;-63
2023/03/13 07:42:42;;;;;;;7.97;7.07;;;9.50;99.90;;;;;;4829967;29;20742;-63
2023/03/13 07:45:11;;;;;;;7.93;7.10;;;9.50;99.90;;;;;;4833543;29;20226;-64
2023/03/13 07:47:39;;;;;;;10.27;7.77;;;9.50;99.90;;;;;;4840800;29;20703;-63
2023/03/13 07:50:08;;;;;;;10.27;8.03;;;9.60;99.90;;;;;;4834969;29;20248;-63
2023/03/13 07:52:37;;;;;;;10.30;9.00;;;9.60;99.90;;;;;;4841922;29;20236;-63
2023/03/13 07:55:06;;;;;;;9.20;8.30;;;9.70;99.90;;;;;;4836503;29;20231;-63
2023/03/13 07:57:34;;;;;;;11.03;9.87;;;9.80;99.90;;;;;;4840110;29;20225;-63
2023/03/13 08:00:08;;;;;;;11.43;9.80;;;9.80;99.90;;;;;;4832623;29;20228;-64
2023/03/13 08:02:38;;;;;;;11.50;9.20;;;9.90;99.90;;;;;;4827905;29;20318;-63
2023/03/13 08:05:07;;;;;;;10.77;9.67;;;9.90;99.90;;;;;;4833254;29;20690;-63
2023/03/13 08:07:35;;;;;;;10.70;9.60;;;10.00;99.90;;;;;;4843337;29;20270;-63
2023/03/13 08:10:04;;;;;;;11.13;9.37;;;10.00;99.90;;;;;;4830293;29;20239;-63
2023/03/13 08:12:32;;;;;;;10.23;9.23;;;10.10;99.90;;;;;;4828054;29;20321;-63
2023/03/13 08:15:01;;;;;;;10.77;9.23;;;10.10;99.90;;;;;;4828756;29;20603;-63
2023/03/13 08:17:31;;;;;;;11.77;10.40;;;10.20;99.90;;;;;;4838531;29;20593;-63
2023/03/13 08:19:59;;;;;;;11.17;9.97;;;10.20;99.90;;;;;;4826476;29;20224;-63
2023/03/13 08:22:27;;;;;;;12.20;10.70;;;10.30;99.90;;;;;;4834599;29;20238;-63
2023/03/13 08:24:55;;;;;;;12.10;10.90;;;10.30;99.90;;;;;;4830217;29;20714;-63
2023/03/13 08:27:23;;;;;;;13.07;11.27;;;10.30;99.90;;;;;;4829274;29;20232;-63
2023/03/13 08:29:52;;;;;;;13.53;12.20;;;10.40;99.90;;;;;;4827600;29;20236;-63
2023/03/13 08:32:20;;;;;;;14.37;12.87;;;10.40;99.90;;;;;;4825403;29;20240;-63
2023/03/13 08:34:50;;;;;;;14.70;12.83;;;10.40;99.90;;;;;;4834506;29;20721;-64
2023/03/13 08:37:18;;;;;;;14.57;13.07;;;10.50;99.90;;;;;;4837990;29;20228;-64
2023/03/13 08:39:47;;;;;;;14.23;11.83;;;10.50;99.90;;;;;;4830717;29;20700;-63
2023/03/13 08:42:15;;;;;;;14.47;12.97;;;10.50;99.90;;;;;;4832494;29;20652;-64
2023/03/13 08:44:44;;;;;;;15.93;12.90;;;10.60;99.90;;;;;;4833363;29;20228;-63
2023/03/13 08:47:12;;;;;;;14.00;12.70;;;10.60;99.90;;;;;;4842481;29;20237;-63
2023/03/13 08:49:40;;;;;;;14.10;12.13;;;10.60;99.90;;;;;;4833803;29;20254;-63
2023/03/13 08:52:10;;;;;;;13.30;11.90;;;10.60;99.90;;;;;;4839568;29;20228;-63
2023/03/13 08:54:38;;;;;;;14.87;10.70;;;10.70;99.90;;;;;;4835361;29;20721;-64
2023/03/13 08:57:06;;;;;;;13.97;10.20;;;10.70;99.90;;;;;;4842822;29;20243;-63
2023/03/13 08:59:34;;;;;;;11.17;9.87;;;10.80;99.90;;;;;;4838881;29;20702;-63
2023/03/13 09:02:02;;;;;;;10.77;9.73;;;10.90;99.90;;;;;;4834566;29;20264;-63
2023/03/13 09:04:31;;;;;;;10.27;9.17;;;10.90;99.90;;;;;;4830821;29;20228;-63
2023/03/13 09:06:59;;;;;;;11.70;9.33;;;11.00;99.90;;;;;;4829379;29;20243;-63
2023/03/13 09:09:28;;;;;;;12.30;9.47;;;11.00;99.90;;;;;;4831391;29;20586;-63
2023/03/13 09:11:56;;;;;;;11.23;9.10;;;11.10;99.90;;;;;;4836744;29;20236;-63
2023/03/13 09:14:24;;;;;;;13.23;9.43;;;11.10;99.90;;;;;;4820371;29;20714;-63
2023/03/13 09:16:52;;;;;;;11.23;10.10;;;11.10;99.90;;;;;;4835537;29;20233;-63
2023/03/13 09:19:20;;;;;;;15.13;10.63;;;11.10;99.90;;;;;;4825307;29;20317;-63
2023/03/13 09:21:49;;;;;;;12.37;11.07;;;11.10;99.90;;;;;;4831682;29;20265;-63
2023/03/13 09:24:17;;;;;;;13.40;10.20;;;11.10;99.90;;;;;;4833627;29;20276;-63
2023/03/13 09:26:47;;;;;;;13.10;10.60;;;11.20;99.90;;;;;;4831735;29;20244;-63
2023/03/13 09:29:28;;;;;;;11.90;10.30;;;11.20;99.90;;;;;;4835919;29;20666;-63
2023/03/13 09:31:56;;;;;;;12.07;10.80;;;11.20;99.90;;;;;;4827762;29;20774;-63
2023/03/13 09:34:26;;;;;;;13.03;10.97;;;11.30;99.90;;;;;;4825009;29;20238;-63
2023/03/13 09:36:57;;;;;;;14.50;10.30;;;11.30;99.90;;;;;;4840070;29;20232;-63
2023/03/13 09:39:26;;;;;;;14.13;11.70;;;11.30;99.90;;;;;;4836119;29;20226;-63
2023/03/13 09:42:04;;;;;;;14.63;11.83;;;11.30;99.90;;;;;;4829286;29;20240;-63
2023/03/13 09:44:40;;;;;;;14.27;11.17;;;11.40;99.90;;;;;;4838194;29;20689;-63
2023/03/13 09:47:16;;;;;;;13.43;11.17;;;11.40;99.90;;;;;;4835427;29;20644;-63
2023/03/13 09:49:46;;;;;;;12.13;10.00;;;11.40;99.90;;;;;;4836489;29;20256;-62
2023/03/13 09:52:17;;;;;;;15.27;11.57;;;11.40;99.90;;;;;;4829288;29;20240;-63
2023/03/13 09:54:52;;;;;;;16.07;10.97;;;11.40;99.90;;;;;;4826966;29;20329;-63
2023/03/13 09:57:27;;;;;;;12.70;10.80;;;11.50;99.90;;;;;;4841745;29;20224;-63
2023/03/13 09:59:58;;;;;;;13.50;10.57;;;11.50;99.90;;;;;;4827284;29;20316;-63
2023/03/13 10:02:32;;;;;;;12.10;10.77;;;11.50;99.90;;;;;;4825541;29;20376;-63
2023/03/13 10:05:07;;;;;;;11.53;10.27;;;11.50;99.90;;;;;;4835163;29;20281;-63
2023/03/13 10:07:36;;;;;;;14.93;10.70;;;11.60;99.90;;;;;;4841894;29;20238;-63
2023/03/13 10:10:13;;;;;;;12.30;9.73;;;11.50;99.90;;;;;;4842438;29;20241;-63
2023/03/13 10:12:45;;;;;;;11.77;9.40;;;11.60;99.90;;;;;;4841978;29;20242;-63
2023/03/13 10:15:29;;;;;;;11.47;9.53;;;11.60;99.90;;;;;;4833946;29;20253;-63
2023/03/13 10:18:01;;;;;;;10.47;8.47;;;11.60;99.90;;;;;;4824192;29;20242;-63
2023/03/13 10:20:34;;;;;;;9.60;8.30;;;11.80;99.90;;;;;;4838582;29;20226;-63
2023/03/13 10:23:06;;;;;;;12.13;7.63;;;11.90;99.90;;;;;;4842131;29;20734;-64
2023/03/13 10:25:38;;;;;;;9.33;7.53;;;12.00;99.90;;;;;;4836156;29;20226;-63
2023/03/13 10:28:11;;;;;;;6.87;6.20;;;12.10;99.90;;;;;;4826616;29;20228;-63
2023/03/13 10:30:46;;;;;;;7.40;6.47;;;12.10;99.90;;;;;;4836419;29;20249;-63
2023/03/13 10:33:23;;;;;;;8.60;6.47;;;12.10;99.90;;;;;;4842030;29;20237;-63
2023/03/13 10:36:06;;;;;;;7.80;5.67;;;12.20;99.90;;;;;;4842210;29;20240;-63
2023/03/13 10:38:45;;;;;;;5.73;5.10;;;12.20;99.90;;;;;;4841783;29;20229;-63
2023/03/13 10:41:27;;;;;;;7.13;5.50;;;12.30;99.90;;;;;;4829957;29;20592;-63
2023/03/13 10:44:00;;;;;;;7.03;5.43;;;12.30;99.90;;;;;;4823986;29;20705;-64
2023/03/13 10:46:30;;;;;;;6.27;4.57;;;12.20;99.90;;;;;;4823500;29;20239;-63
2023/03/13 10:49:02;;;;;;;4.70;4.07;;;12.20;99.90;;;;;;4831704;29;20719;-63
2023/03/13 10:51:36;;;;;;;8.53;4.43;;;12.10;99.90;;;;;;4841465;29;20333;-63
2023/03/13 10:54:15;;;;;;;4.10;3.70;;;12.10;99.90;;;;;;4841719;29;20234;-63
2023/03/13 10:56:43;;;;;;;7.17;3.77;;;12.10;99.90;;;;;;4841557;29;20242;-63
2023/03/13 10:59:22;;;;;;;8.27;3.63;;;12.20;99.90;;;;;;4835650;29;20683;-63
2023/03/13 11:01:51;;;;;;;5.67;2.87;;;12.40;99.90;;;;;;4835215;29;20242;-64
2023/03/13 11:04:26;;;;;;;5.23;3.00;;;12.80;99.90;;;;;;4841599;29;20245;-64
2023/03/13 11:07:01;;;;;;;5.73;3.23;;;13.10;99.90;;;;;;4841631;29;20234;-63
2023/03/13 11:09:29;;;;;;;4.10;2.60;;;13.40;99.90;;;;;;4841410;29;20609;-64
2023/03/13 11:12:04;;;;;;;3.83;2.50;;;13.70;99.90;;;;;;4841610;29;20751;-64
2023/03/13 11:14:34;;;;;;;4.53;2.47;;;14.00;99.90;;;;;;4836844;29;20234;-64
2023/03/13 11:17:09;;;;;;;3.00;2.17;;;14.10;99.90;;;;;;4823310;29;20243;-64
2023/03/13 11:19:54;;;;;;;3.10;1.93;;;14.00;99.90;;;;;;4835425;29;20322;-63
2023/03/13 11:22:36;;;;;;;2.80;2.27;;;14.00;99.90;;;;;;4831518;29;20277;-64
2023/03/13 11:25:19;;;;;;;3.13;2.13;;;14.00;99.90;;;;;;4841813;29;20238;-64
2023/03/13 11:27:58;;;;;;;3.60;2.07;;;14.00;99.90;;;;;;4841632;29;20720;-64
2023/03/13 11:30:46;;;;;;;3.23;2.10;;;14.10;99.90;;;;;;4840863;29;20242;-64
2023/03/13 11:33:27;;;;;;;2.60;1.90;;;14.10;99.90;;;;;;4841389;29;20246;-64
2023/03/13 11:36:01;;;;;;;6.10;1.87;;;14.20;99.90;;;;;;4841413;29;20234;-64
2023/03/13 11:38:36;;;;;;;2.60;1.70;;;14.50;99.90;;;;;;4842950;29;20225;-64
2023/03/13 11:41:22;;;;;;;6.67;2.37;;;14.60;99.90;;;;;;4844927;29;20589;-64
2023/03/13 11:44:11;;;;;;;3.13;1.60;;;14.40;99.90;;;;;;4844603;29;20595;-64
2023/03/13 11:46:49;;;;;;;3.23;1.80;;;14.30;99.90;;;;;;4843870;29;20249;-64
2023/03/13 11:49:42;;;;;;;4.87;1.80;;;14.30;99.90;;;;;;4835580;29;20246;-64
2023/03/13 11:52:19;;;;;;;2.37;1.40;;;14.40;99.90;;;;;;4838311;29;20699;-64
2023/03/13 11:55:12;;;;;;;5.60;2.17;;;14.60;99.90;;;;;;4844445;29;20252;-64
2023/03/13 11:57:47;;;;;;;5.27;1.90;;;14.90;99.90;;;;;;4822632;29;20252;-64
2023/03/13 12:00:22;;;;;;;3.90;1.70;;;14.90;99.90;;;;;;4831825;29;20571;-64
2023/03/13 12:02:56;;;;;;;4.17;2.13;;;14.70;99.90;;;;;;4844755;29;20238;-64
2023/03/13 12:05:28;;;;;;;4.77;1.77;;;14.70;99.90;;;;;;4826502;29;20242;-64
2023/03/13 12:08:02;;;;;;;4.70;1.80;;;14.90;99.90;;;;;;4813002;29;20228;-64
2023/03/13 12:10:38;;;;;;;4.60;1.63;;;14.80;99.90;;;;;;4818882;29;20263;-64
2023/03/13 12:13:13;;;;;;;4.13;1.90;;;14.70;99.90;;;;;;4825224;29;20236;-64
2023/03/13 12:15:45;;;;;;;3.23;1.60;;;14.60;99.90;;;;;;4824781;29;20292;-64
2023/03/13 12:18:22;;;;;;;3.10;1.60;;;14.70;99.90;;;;;;4829147;29;20232;-64
2023/03/13 12:20:56;;;;;;;6.60;1.90;;;14.80;99.90;;;;;;4843807;29;20583;-64
2023/03/13 12:23:33;;;;;;;5.93;2.20;;;14.80;99.90;;;;;;4842690;29;20231;-64
2023/03/13 12:26:05;;;;;;;2.13;1.80;;;14.70;99.90;;;;;;4844084;29;20242;-64
2023/03/13 12:28:41;;;;;;;2.60;1.70;;;14.60;99.90;;;;;;4819561;29;20243;-64
2023/03/13 12:31:18;;;;;;;4.60;1.77;;;14.70;99.90;;;;;;4823343;29;20261;-64
2023/03/13 12:33:55;;;;;;;2.77;1.80;;;14.70;99.90;;;;;;4825582;29;20235;-64
2023/03/13 12:36:29;;;;;;;2.93;1.70;;;14.70;99.90;;;;;;4825692;29;20587;-64
2023/03/13 12:39:06;;;;;;;6.33;2.03;;;14.60;99.90;;;;;;4825402;29;20228;-64
2023/03/13 12:41:40;;;;;;;4.50;2.27;;;14.50;99.90;;;;;;4825111;29;20243;-64
2023/03/13 12:44:14;;;;;;;4.40;1.90;;;14.60;99.90;;;;;;4825301;29;20271;-64
2023/03/13 12:46:46;;;;;;;3.67;1.80;;;14.80;99.90;;;;;;4820928;29;20634;-64
2023/03/13 12:49:49;;;;;;;5.77;2.03;;;14.90;99.90;;;;;;4824235;29;20681;-63
2023/03/13 12:52:42;;;;;;;5.23;1.90;;;15.10;99.90;;;;;;4817569;29;20297;-63
2023/03/13 12:55:44;;;;;;;4.73;2.13;;;15.20;99.90;;;;;;4817176;29;20242;-64
2023/03/13 12:58:29;;;;;;;4.63;2.00;;;15.20;99.90;;;;;;4815159;29;20265;-63
2023/03/13 13:01:02;;;;;;;3.83;1.77;;;15.30;99.90;;;;;;4815699;29;20242;-64
2023/03/13 13:03:35;;;;;;;5.30;1.80;;;15.20;99.90;;;;;;4817567;29;20263;-64
2023/03/13 13:06:10;;;;;;;4.57;1.90;;;15.30;99.90;;;;;;4828222;29;20240;-64
2023/03/13 13:08:41;;;;;;;3.43;1.53;;;15.30;99.90;;;;;;4843258;29;20267;-64
2023/03/13 13:11:47;;;;;;;3.83;1.80;;;15.30;99.90;;;;;;4843249;29;20787;-64
2023/03/13 13:14:57;;;;;;;4.73;1.80;;;15.40;99.90;;;;;;4834450;29;20235;-64
2023/03/13 13:17:48;;;;;;;3.23;1.60;;;15.40;99.90;;;;;;4833474;29;20687;-64
2023/03/13 13:20:31;;;;;;;4.83;1.50;;;15.40;99.90;;;;;;4834608;29;20227;-64